createdAt,value
2023-01-07T00:02:59.773Z,73.43
2023-01-07T00:05:57.966Z,77.50
2023-01-07T00:08:25.579Z,79.03
2023-01-07T00:10:52.891Z,77.28
2023-01-07T00:13:20.198Z,76.97
2023-01-07T00:15:47.456Z,76.85
2023-01-07T00:18:14.776Z,73.93
2023-01-07T00:20:42.020Z,75.03
2023-01-07T00:23:09.302Z,72.05
2023-01-07T00:25:36.534Z,71.43
2023-01-07T00:28:03.941Z,72.25
2023-01-07T00:30:31.232Z,75.40
2023-01-07T00:33:04.382Z,68.20
2023-01-07T00:35:37.016Z,74.82
2023-01-07T00:38:05.324Z,70.88
2023-01-07T00:40:33.227Z,75.43
2023-01-07T00:43:06.989Z,69.00
2023-01-07T00:45:37.700Z,69.53
2023-01-07T00:48:05.886Z,75.15
2023-01-07T00:50:35.326Z,68.22
2023-01-07T00:53:03.017Z,70.38
2023-01-07T00:55:31.203Z,73.45
2023-01-07T00:57:59.078Z,71.30
2023-01-07T01:00:27.275Z,72.47
2023-01-07T01:02:54.636Z,71.00
2023-01-07T01:05:22.436Z,72.00
2023-01-07T01:07:49.848Z,71.18
2023-01-07T01:10:19.295Z,64.25
2023-01-07T01:12:49.324Z,68.35
2023-01-07T01:15:17.284Z,61.63
2023-01-07T01:17:44.554Z,67.75
2023-01-07T01:20:14.932Z,66.55
2023-01-07T01:22:42.901Z,67.18
2023-01-07T01:25:10.990Z,65.45
2023-01-07T01:27:38.808Z,65.10
2023-01-07T01:30:07.611Z,58.60
2023-01-07T01:32:37.718Z,59.35
2023-01-07T01:35:05.448Z,56.17
2023-01-07T01:37:32.750Z,61.90
2023-01-07T01:40:03.850Z,60.75
2023-01-07T01:42:31.744Z,61.45
2023-01-07T01:45:01.100Z,60.83
2023-01-07T01:47:53.632Z,63.10
2023-01-07T01:50:34.553Z,65.25
2023-01-07T01:53:09.945Z,60.58
2023-01-07T01:56:07.204Z,64.63
2023-01-07T01:58:40.068Z,69.22
2023-01-07T02:01:07.974Z,61.85
2023-01-07T02:03:37.751Z,65.55
2023-01-07T02:06:06.139Z,60.53
2023-01-07T02:08:33.573Z,61.35
2023-01-07T02:11:28.680Z,61.53
2023-01-07T02:13:55.904Z,63.97
2023-01-07T02:16:31.083Z,63.75
2023-01-07T02:19:23.341Z,60.58
2023-01-07T02:22:08.996Z,63.22
2023-01-07T02:25:07.682Z,64.00
2023-01-07T02:27:56.358Z,58.15
2023-01-07T02:30:45.970Z,60.70
2023-01-07T02:33:35.726Z,59.50
2023-01-07T02:36:11.987Z,62.83
2023-01-07T02:38:51.196Z,62.25
2023-01-07T02:41:49.585Z,61.35
2023-01-07T02:44:44.135Z,64.72
2023-01-07T02:47:20.943Z,62.10
2023-01-07T02:49:48.515Z,59.22
2023-01-07T02:52:24.458Z,62.42
2023-01-07T02:55:06.063Z,59.63
2023-01-07T02:58:03.946Z,59.28
2023-01-07T03:00:46.500Z,61.03
2023-01-07T03:03:50.673Z,61.33
2023-01-07T03:06:39.910Z,58.13
2023-01-07T03:09:17.414Z,57.83
2023-01-07T03:11:59.854Z,59.38
2023-01-07T03:14:35.621Z,63.42
2023-01-07T03:17:06.823Z,58.78
2023-01-07T03:19:38.169Z,57.63
2023-01-07T03:22:09.078Z,56.90
2023-01-07T03:24:36.507Z,62.97
2023-01-07T03:27:06.196Z,67.32
2023-01-07T03:29:35.729Z,61.83
2023-01-07T03:32:15.374Z,66.90
2023-01-07T03:34:44.010Z,58.80
2023-01-07T03:37:15.043Z,58.63
2023-01-07T03:39:45.696Z,70.25
2023-01-07T03:42:33.572Z,73.97
2023-01-07T03:45:01.079Z,61.20
2023-01-07T03:47:31.326Z,72.00
2023-01-07T03:49:58.720Z,72.32
2023-01-07T03:52:26.205Z,76.18
2023-01-07T03:54:53.751Z,73.13
2023-01-07T03:57:22.079Z,79.30
2023-01-07T03:59:49.374Z,77.40
2023-01-07T04:02:16.876Z,72.95
2023-01-07T04:04:44.252Z,78.43
2023-01-07T04:07:13.615Z,80.40
2023-01-07T04:09:41.267Z,77.22
2023-01-07T04:12:09.572Z,78.22
2023-01-07T04:14:36.879Z,77.28
2023-01-07T04:17:04.114Z,78.22
2023-01-07T04:19:31.799Z,77.53
2023-01-07T04:21:59.269Z,81.22
2023-01-07T04:24:26.640Z,84.40
2023-01-07T04:26:54.125Z,80.85
2023-01-07T04:29:23.290Z,77.88
2023-01-07T04:31:50.648Z,71.07
2023-01-07T04:34:18.195Z,80.57
2023-01-07T04:36:45.420Z,80.25
2023-01-07T04:39:13.339Z,78.40
2023-01-07T04:41:40.799Z,75.82
2023-01-07T04:44:08.993Z,76.75
2023-01-07T04:46:36.370Z,76.65
2023-01-07T04:49:04.211Z,80.65
2023-01-07T04:51:31.621Z,76.57
2023-01-07T04:53:59.439Z,76.68
2023-01-07T04:56:27.188Z,84.18
2023-01-07T04:58:55.063Z,74.45
2023-01-07T05:01:23.150Z,81.65
2023-01-07T05:03:50.634Z,82.95
2023-01-07T05:06:18.900Z,78.57
2023-01-07T05:08:46.583Z,84.95
2023-01-07T05:11:15.441Z,79.65
2023-01-07T05:13:44.268Z,84.60
2023-01-07T05:16:11.648Z,78.75
2023-01-07T05:18:40.901Z,79.70
2023-01-07T05:21:10.470Z,82.93
2023-01-07T05:23:38.876Z,83.80
2023-01-07T05:26:06.396Z,85.45
2023-01-07T05:28:33.788Z,79.07
2023-01-07T05:31:02.605Z,74.25
2023-01-07T05:33:31.591Z,82.40
2023-01-07T05:35:58.920Z,77.57
2023-01-07T05:38:26.146Z,82.95
2023-01-07T05:40:53.463Z,78.18
2023-01-07T05:43:24.891Z,80.43
2023-01-07T05:45:52.183Z,82.05
2023-01-07T05:48:19.467Z,83.75
2023-01-07T05:50:46.751Z,78.90
2023-01-07T05:53:14.076Z,83.53
2023-01-07T05:55:41.378Z,82.82
2023-01-07T05:58:08.849Z,84.47
2023-01-07T06:00:36.984Z,79.43
2023-01-07T06:03:05.599Z,78.45
2023-01-07T06:05:33.049Z,84.65
2023-01-07T06:08:00.408Z,85.00
2023-01-07T06:10:27.648Z,85.43
2023-01-07T06:12:54.953Z,83.63
2023-01-07T06:15:22.215Z,83.85
2023-01-07T06:17:49.443Z,87.05
2023-01-07T06:20:16.818Z,79.82
2023-01-07T06:22:44.166Z,80.55
2023-01-07T06:25:12.885Z,85.45
2023-01-07T06:27:43.164Z,83.65
2023-01-07T06:30:11.651Z,85.32
2023-01-07T06:32:43.480Z,81.95
2023-01-07T06:35:11.630Z,84.78
2023-01-07T06:37:39.341Z,78.85
2023-01-07T06:40:07.813Z,81.30
2023-01-07T06:42:35.217Z,81.60
2023-01-07T06:45:02.522Z,81.05
2023-01-07T06:47:29.790Z,76.55
2023-01-07T06:49:57.066Z,78.05
2023-01-07T06:52:24.355Z,76.03
2023-01-07T06:54:51.586Z,77.22
2023-01-07T06:57:18.961Z,72.05
2023-01-07T06:59:46.262Z,86.30
2023-01-07T07:02:21.637Z,91.85
2023-01-07T07:04:49.477Z,93.22
2023-01-07T07:07:17.674Z,88.53
2023-01-07T07:09:45.486Z,81.82
2023-01-07T07:12:13.440Z,89.50
2023-01-07T07:14:40.892Z,80.50
2023-01-07T07:17:08.438Z,89.15
2023-01-07T07:19:35.722Z,82.38
2023-01-07T07:22:04.707Z,82.90
2023-01-07T07:24:32.111Z,76.00
2023-01-07T07:27:00.212Z,87.80
2023-01-07T07:29:27.591Z,80.10
2023-01-07T07:31:54.864Z,85.57
2023-01-07T07:34:22.186Z,81.80
2023-01-07T07:36:49.545Z,81.75
2023-01-07T07:39:16.912Z,86.38
2023-01-07T07:41:44.286Z,82.80
2023-01-07T07:44:11.558Z,85.10
2023-01-07T07:46:40.715Z,85.32
2023-01-07T07:49:08.600Z,73.72
2023-01-07T07:51:35.927Z,75.40
2023-01-07T07:54:03.391Z,76.05
2023-01-07T07:56:32.000Z,75.88
2023-01-07T07:58:59.255Z,75.85
2023-01-07T08:01:27.450Z,69.40
2023-01-07T08:03:54.848Z,68.68
2023-01-07T08:06:22.086Z,67.38
2023-01-07T08:08:49.384Z,72.00
2023-01-07T08:11:16.635Z,67.57
2023-01-07T08:13:44.494Z,69.63
2023-01-07T08:16:11.783Z,70.22
2023-01-07T08:18:39.930Z,65.50
2023-01-07T08:21:07.267Z,65.40
2023-01-07T08:23:34.890Z,64.72
2023-01-07T08:26:03.363Z,65.05
2023-01-07T08:28:31.898Z,68.78
2023-01-07T08:31:06.336Z,67.20
2023-01-07T08:33:37.598Z,67.88
2023-01-07T08:36:09.311Z,56.40
2023-01-07T08:38:39.541Z,57.90
2023-01-07T08:41:06.870Z,56.08
2023-01-07T08:43:35.341Z,50.53
2023-01-07T08:46:02.818Z,51.33
2023-01-07T08:48:30.049Z,49.00
2023-01-07T08:50:57.282Z,51.30
2023-01-07T08:53:25.399Z,47.17
2023-01-07T08:55:52.781Z,56.00
2023-01-07T08:58:20.061Z,51.28
2023-01-07T09:00:47.308Z,55.03
2023-01-07T09:03:14.582Z,53.33
2023-01-07T09:05:41.824Z,52.47
2023-01-07T09:08:09.171Z,51.10
2023-01-07T09:10:36.429Z,50.40
2023-01-07T09:13:03.710Z,53.65
2023-01-07T09:15:31.032Z,51.50
2023-01-07T09:17:58.294Z,48.13
2023-01-07T09:20:25.531Z,53.78
2023-01-07T09:22:52.806Z,49.15
2023-01-07T09:25:20.159Z,48.60
2023-01-07T09:27:47.515Z,54.03
2023-01-07T09:30:15.184Z,50.28
2023-01-07T09:32:43.305Z,54.97
2023-01-07T09:35:11.087Z,53.88
2023-01-07T09:37:38.626Z,47.90
2023-01-07T09:40:07.839Z,47.60
2023-01-07T09:42:37.779Z,48.85
2023-01-07T09:45:10.925Z,47.65
2023-01-07T09:47:43.295Z,52.10
2023-01-07T09:50:16.939Z,46.85
2023-01-07T09:52:50.187Z,50.65
2023-01-07T09:55:39.229Z,46.20
2023-01-07T09:58:26.932Z,47.17
2023-01-07T10:01:00.370Z,49.03
2023-01-07T10:03:51.626Z,49.83
2023-01-07T10:06:43.130Z,49.10
2023-01-07T10:09:30.402Z,50.75
2023-01-07T10:12:12.320Z,49.47
2023-01-07T10:14:51.996Z,48.40
2023-01-07T10:17:54.530Z,47.80
2023-01-07T10:20:37.556Z,53.05
2023-01-07T10:23:14.226Z,48.42
2023-01-07T10:25:47.731Z,53.35
2023-01-07T10:28:25.167Z,54.53
2023-01-07T10:30:52.521Z,54.30
2023-01-07T10:33:26.823Z,53.88
2023-01-07T10:36:03.714Z,46.90
2023-01-07T10:38:35.265Z,50.83
2023-01-07T10:41:09.141Z,49.40
2023-01-07T10:44:03.423Z,52.38
2023-01-07T10:47:01.843Z,48.13
2023-01-07T10:50:17.592Z,48.83
2023-01-07T10:52:57.799Z,53.80
2023-01-07T10:55:43.787Z,44.53
2023-01-07T10:58:11.983Z,47.13
2023-01-07T11:00:40.546Z,44.42
2023-01-07T11:03:21.150Z,46.55
2023-01-07T11:05:59.468Z,50.55
2023-01-07T11:08:34.144Z,47.50
2023-01-07T11:11:03.461Z,54.03
2023-01-07T11:13:33.675Z,52.95
2023-01-07T11:16:22.285Z,52.38
2023-01-07T11:18:55.114Z,57.85
2023-01-07T11:21:42.756Z,50.63
2023-01-07T11:24:31.709Z,52.72
2023-01-07T11:27:14.105Z,52.42
2023-01-07T11:29:45.829Z,48.20
2023-01-07T11:32:26.182Z,53.30
2023-01-07T11:34:56.474Z,49.08
2023-01-07T11:37:38.721Z,48.08
2023-01-07T11:40:15.238Z,49.05
2023-01-07T11:42:53.833Z,53.90
2023-01-07T11:45:24.017Z,57.30
2023-01-07T11:48:25.039Z,64.50
2023-01-07T11:51:01.663Z,59.45
2023-01-07T11:53:43.859Z,58.30
2023-01-07T11:56:19.789Z,63.58
2023-01-07T11:58:51.975Z,61.55
2023-01-07T12:01:22.688Z,56.30
2023-01-07T12:03:53.286Z,57.80
2023-01-07T12:06:30.325Z,56.67
2023-01-07T12:09:26.027Z,57.35
2023-01-07T12:11:56.482Z,58.08
2023-01-07T12:14:37.738Z,49.55
2023-01-07T12:17:21.248Z,54.05
2023-01-07T12:20:25.034Z,58.45
2023-01-07T12:23:21.277Z,61.50
2023-01-07T12:25:54.651Z,56.85
2023-01-07T12:28:43.828Z,57.22
2023-01-07T12:31:39.804Z,62.53
2023-01-07T12:34:16.055Z,56.22
2023-01-07T12:36:48.085Z,58.72
2023-01-07T12:39:35.287Z,57.05
2023-01-07T12:42:15.831Z,53.70
2023-01-07T12:44:54.338Z,55.22
2023-01-07T12:47:31.249Z,52.53
2023-01-07T12:50:22.966Z,53.38
2023-01-07T12:52:57.196Z,52.88
2023-01-07T12:55:35.831Z,53.13
2023-01-07T12:58:18.127Z,53.10
2023-01-07T13:01:22.119Z,52.53
2023-01-07T13:04:05.346Z,50.13
2023-01-07T13:06:44.982Z,54.80
2023-01-07T13:09:29.837Z,48.65
2023-01-07T13:12:42.048Z,56.65
2023-01-07T13:15:20.767Z,50.17
2023-01-07T13:17:49.843Z,54.35
2023-01-07T13:20:22.610Z,57.15
2023-01-07T13:22:54.990Z,56.65
2023-01-07T13:25:25.108Z,51.75
2023-01-07T13:28:10.866Z,50.50
2023-01-07T13:30:59.979Z,55.83
2023-01-07T13:33:43.858Z,51.90
2023-01-07T13:36:34.502Z,51.50
2023-01-07T13:39:07.584Z,59.28
2023-01-07T13:41:56.368Z,60.85
2023-01-07T13:44:41.597Z,59.38
2023-01-07T13:47:13.128Z,60.03
2023-01-07T13:49:56.964Z,58.45
2023-01-07T13:52:27.959Z,53.90
2023-01-07T13:54:56.911Z,58.97
2023-01-07T13:57:24.087Z,57.25
2023-01-07T13:59:53.819Z,57.08
2023-01-07T14:02:29.384Z,63.10
2023-01-07T14:05:12.185Z,60.08
2023-01-07T14:07:50.744Z,53.72
2023-01-07T14:10:36.007Z,56.97
2023-01-07T14:13:27.521Z,57.75
2023-01-07T14:16:23.821Z,52.85
2023-01-07T14:19:07.166Z,52.25
2023-01-07T14:21:44.834Z,58.97
2023-01-07T14:24:33.080Z,60.05
2023-01-07T14:27:12.129Z,60.70
2023-01-07T14:29:46.240Z,56.08
2023-01-07T14:32:27.494Z,53.90
2023-01-07T14:35:11.682Z,52.92
2023-01-07T14:37:46.920Z,58.65
2023-01-07T14:40:46.343Z,56.25
2023-01-07T14:43:55.911Z,51.83
2023-01-07T14:46:23.307Z,59.72
2023-01-07T14:49:28.228Z,60.22
2023-01-07T14:52:10.282Z,52.22
2023-01-07T14:55:11.692Z,57.25
2023-01-07T14:58:11.162Z,57.38
2023-01-07T15:00:59.323Z,56.72
2023-01-07T15:03:35.745Z,57.15
2023-01-07T15:09:31.491Z,64.07
2023-01-07T15:12:23.010Z,63.33
2023-01-07T15:15:24.025Z,58.92
2023-01-07T15:17:51.390Z,60.67
2023-01-07T15:20:19.099Z,61.42
2023-01-07T15:22:56.654Z,61.13
2023-01-07T15:25:39.758Z,63.15
2023-01-07T15:28:11.816Z,63.78
2023-01-07T15:30:50.649Z,62.13
2023-01-07T15:33:45.889Z,66.47
2023-01-07T15:36:15.616Z,65.50
2023-01-07T15:38:49.508Z,61.25
2023-01-07T15:41:23.845Z,63.42
2023-01-07T15:43:52.021Z,62.42
2023-01-07T15:46:21.225Z,67.53
2023-01-07T15:49:05.752Z,64.28
2023-01-07T15:52:05.462Z,65.38
2023-01-07T15:54:35.545Z,58.70
2023-01-07T15:57:05.926Z,63.97
2023-01-07T15:59:36.047Z,66.57
2023-01-07T16:02:23.028Z,76.22
2023-01-07T16:04:53.317Z,69.53
2023-01-07T16:07:24.041Z,67.70
2023-01-07T16:09:52.328Z,71.22
2023-01-07T16:12:24.765Z,67.47
2023-01-07T16:14:52.071Z,71.53
2023-01-07T16:17:19.832Z,98.80
2023-01-07T16:19:47.545Z,85.20
2023-01-07T16:22:21.523Z,77.95
2023-01-07T16:24:52.295Z,70.93
2023-01-07T16:27:28.836Z,87.53
2023-01-07T16:30:02.786Z,81.78
2023-01-07T16:32:31.006Z,75.70
2023-01-07T16:35:06.987Z,82.80
2023-01-07T16:37:39.815Z,75.07
2023-01-07T16:40:30.676Z,81.38
2023-01-07T16:43:00.765Z,76.18
2023-01-07T16:45:32.587Z,76.93
2023-01-07T16:48:14.090Z,70.60
2023-01-07T16:50:44.229Z,71.90
2023-01-07T16:53:27.116Z,68.97
2023-01-07T16:56:02.373Z,67.63
2023-01-07T16:58:47.935Z,69.60
2023-01-07T17:01:30.187Z,71.13
2023-01-07T17:04:00.643Z,93.55
2023-01-07T17:06:40.708Z,74.78
2023-01-07T17:09:26.883Z,61.72
2023-01-07T17:11:56.179Z,70.68
2023-01-07T17:14:39.918Z,76.18
2023-01-07T17:17:33.995Z,77.40
2023-01-07T17:20:22.946Z,73.88
2023-01-07T17:22:51.624Z,82.03
2023-01-07T17:25:24.612Z,77.50
2023-01-07T17:27:59.870Z,76.78
2023-01-07T17:30:37.693Z,82.77
2023-01-07T17:33:05.536Z,84.22
2023-01-07T17:35:35.945Z,83.53
2023-01-07T17:38:12.515Z,74.57
2023-01-07T17:40:43.644Z,77.55
2023-01-07T17:43:35.851Z,79.38
2023-01-07T17:46:12.993Z,81.68
2023-01-07T17:48:43.679Z,112.18
2023-01-07T17:51:12.161Z,83.82
2023-01-07T17:53:45.743Z,81.68
2023-01-07T17:56:13.669Z,81.43
2023-01-07T17:58:41.722Z,89.80
2023-01-07T18:01:13.189Z,84.28
2023-01-07T18:03:41.366Z,86.70
2023-01-07T18:06:28.008Z,80.47
2023-01-07T18:08:57.169Z,81.90
2023-01-07T18:11:47.614Z,80.40
2023-01-07T18:14:15.600Z,88.03
2023-01-07T18:16:44.111Z,88.03
2023-01-07T18:19:16.928Z,90.90
2023-01-07T18:21:45.026Z,90.80
2023-01-07T18:24:21.423Z,93.57
2023-01-07T18:26:53.280Z,91.28
2023-01-07T18:29:21.765Z,87.55
2023-01-07T18:31:51.980Z,77.93
2023-01-07T18:34:19.794Z,91.63
2023-01-07T18:36:49.107Z,83.20
2023-01-07T18:39:19.966Z,85.45
2023-01-07T18:41:52.606Z,90.35
2023-01-07T18:44:23.385Z,87.80
2023-01-07T18:47:22.126Z,99.10
2023-01-07T18:49:52.669Z,99.88
2023-01-07T18:52:21.027Z,95.05
2023-01-07T18:54:49.133Z,105.82
2023-01-07T18:57:19.175Z,107.95
2023-01-07T18:59:46.933Z,106.63
2023-01-07T19:02:23.574Z,95.65
2023-01-07T19:04:51.482Z,86.57
2023-01-07T19:07:19.713Z,93.28
2023-01-07T19:09:48.346Z,84.68
2023-01-07T19:12:15.753Z,99.55
2023-01-07T19:14:43.033Z,89.68
2023-01-07T19:17:10.812Z,94.28
2023-01-07T19:19:47.986Z,92.68
2023-01-07T19:22:16.702Z,92.93
2023-01-07T19:24:44.380Z,89.32
2023-01-07T19:27:12.172Z,97.47
2023-01-07T19:29:39.470Z,96.13
2023-01-07T19:32:06.958Z,85.13
2023-01-07T19:34:34.342Z,95.75
2023-01-07T19:37:01.608Z,85.60
2023-01-07T19:39:28.918Z,90.90
2023-01-07T19:41:56.276Z,87.90
2023-01-07T19:44:23.564Z,99.30
2023-01-07T19:46:50.874Z,92.35
2023-01-07T19:49:18.312Z,93.80
2023-01-07T19:51:46.037Z,91.43
2023-01-07T19:54:15.923Z,102.57
2023-01-07T19:56:43.774Z,93.13
2023-01-07T19:59:11.532Z,97.50
2023-01-07T20:01:39.460Z,85.25
2023-01-07T20:04:08.169Z,89.00
2023-01-07T20:06:41.176Z,98.00
2023-01-07T20:09:12.323Z,93.38
2023-01-07T20:11:40.525Z,96.07
2023-01-07T20:14:08.002Z,96.10
2023-01-07T20:16:36.979Z,86.88
2023-01-07T20:19:05.785Z,84.97
2023-01-07T20:21:33.513Z,90.70
2023-01-07T20:24:00.973Z,87.78
2023-01-07T20:26:31.098Z,89.97
2023-01-07T20:28:59.785Z,89.75
2023-01-07T20:31:28.738Z,90.15
2023-01-07T20:33:56.124Z,91.97
2023-01-07T20:36:26.024Z,87.05
2023-01-07T20:38:53.904Z,87.72
2023-01-07T20:41:27.119Z,86.97
2023-01-07T20:43:57.214Z,89.97
2023-01-07T20:46:25.947Z,83.13
2023-01-07T20:48:53.299Z,88.15
2023-01-07T20:51:21.024Z,86.60
2023-01-07T20:53:48.454Z,89.00
2023-01-07T20:56:18.892Z,87.82
2023-01-07T20:58:47.227Z,88.43
2023-01-07T21:01:17.063Z,91.32
2023-01-07T21:03:45.795Z,91.18
2023-01-07T21:06:15.556Z,92.53
2023-01-07T21:08:43.450Z,88.70
2023-01-07T21:11:12.980Z,154.90
2023-01-07T21:13:40.408Z,100.70
2023-01-07T21:16:08.183Z,101.72
2023-01-07T21:18:35.987Z,107.43
2023-01-07T21:21:10.363Z,140.73
2023-01-07T21:23:37.731Z,110.72
2023-01-07T21:26:06.920Z,100.65
2023-01-07T21:28:35.201Z,94.35
2023-01-07T21:31:05.969Z,89.55
2023-01-07T21:33:33.425Z,99.10
2023-01-07T21:36:00.731Z,97.20
2023-01-07T21:38:27.987Z,95.38
2023-01-07T21:40:55.221Z,96.13
2023-01-07T21:43:22.504Z,106.85
2023-01-07T21:45:49.859Z,104.10
2023-01-07T21:48:17.244Z,97.47
2023-01-07T21:50:44.509Z,105.22
2023-01-07T21:53:12.831Z,88.00
2023-01-07T21:55:40.076Z,97.55
2023-01-07T21:58:08.000Z,93.82
2023-01-07T22:00:35.349Z,101.20
2023-01-07T22:03:02.775Z,93.70
2023-01-07T22:05:30.196Z,102.32
2023-01-07T22:07:57.516Z,118.75
2023-01-07T22:10:24.764Z,149.07
2023-01-07T22:12:52.107Z,127.57
2023-01-07T22:15:19.538Z,101.00
2023-01-07T22:17:46.847Z,93.22
2023-01-07T22:20:14.114Z,93.88
2023-01-07T22:22:41.736Z,91.28
2023-01-07T22:25:09.547Z,88.53
2023-01-07T22:27:36.800Z,91.15
2023-01-07T22:30:04.489Z,87.35
2023-01-07T22:32:31.833Z,94.72
2023-01-07T22:34:59.061Z,86.03
2023-01-07T22:37:26.784Z,93.03
2023-01-07T22:39:58.389Z,93.85
2023-01-07T22:42:46.605Z,90.10
2023-01-07T22:45:17.828Z,96.15
2023-01-07T22:47:48.404Z,89.82
2023-01-07T22:50:17.007Z,96.60
2023-01-07T22:52:44.667Z,98.65
2023-01-07T22:55:12.715Z,92.95
2023-01-07T22:57:40.759Z,86.50
2023-01-07T23:00:16.319Z,87.40
2023-01-07T23:02:43.663Z,98.18
2023-01-07T23:05:10.982Z,92.38
2023-01-07T23:07:38.212Z,94.28
2023-01-07T23:10:05.953Z,93.45
2023-01-07T23:12:33.183Z,88.75
2023-01-07T23:15:00.403Z,88.80
2023-01-07T23:17:29.095Z,92.05
2023-01-07T23:19:56.320Z,89.13
2023-01-07T23:22:23.621Z,88.97
2023-01-07T23:24:50.839Z,87.97
2023-01-07T23:27:18.133Z,86.93
2023-01-07T23:29:45.488Z,85.75
2023-01-07T23:32:12.822Z,85.95
2023-01-07T23:34:40.194Z,86.45
2023-01-07T23:37:07.718Z,110.57
2023-01-07T23:39:34.988Z,87.90
2023-01-07T23:42:02.196Z,87.88
2023-01-07T23:44:29.429Z,87.72
2023-01-07T23:46:56.838Z,98.22
2023-01-07T23:49:24.094Z,115.40
2023-01-07T23:51:51.400Z,112.60
2023-01-07T23:54:18.649Z,86.18
2023-01-07T23:56:45.855Z,89.13
2023-01-07T23:59:13.201Z,86.70
